Time;durP1;ratioP1;P1;durP2;ratioP2;P2;SDS_P1;SDS_P2;PMS_P1;PMS_P2;Temp;Humidity;BMP_temperature;BMP_pressure;BME280_temperature;BME280_humidity;BME280_pressure;Samples;Min_cycle;Max_cycle;Signal;HPM_P1;HPM_P2
2022/09/26 00:00:34;;;;;;;11.27;8.93;;;13.20;99.90;;;;;;5069482;28;20487;-87
2022/09/26 00:03:01;;;;;;;12.43;9.00;;;13.10;99.90;;;;;;5059969;28;20440;-86
2022/09/26 00:05:28;;;;;;;10.93;8.20;;;13.00;99.90;;;;;;5060369;28;20454;-87
2022/09/26 00:07:54;;;;;;;9.27;7.87;;;12.90;99.90;;;;;;5063306;28;20489;-87
2022/09/26 00:10:22;;;;;;;11.30;8.87;;;13.00;99.90;;;;;;5065541;28;20449;-87
2022/09/26 00:12:49;;;;;;;11.83;10.00;;;12.90;99.90;;;;;;5068873;28;20948;-86
2022/09/26 00:15:16;;;;;;;10.50;8.80;;;12.90;99.90;;;;;;5061982;28;20483;-87
2022/09/26 00:17:43;;;;;;;10.93;8.83;;;12.90;99.90;;;;;;5076796;28;20882;-87
2022/09/26 00:20:09;;;;;;;11.60;10.00;;;12.90;99.90;;;;;;5064021;28;20978;-87
2022/09/26 00:22:36;;;;;;;11.87;9.23;;;12.90;99.90;;;;;;5060957;28;20437;-87
2022/09/26 00:25:03;;;;;;;10.67;9.57;;;12.90;99.90;;;;;;5061807;28;20461;-87
2022/09/26 00:27:31;;;;;;;13.93;10.80;;;12.80;99.90;;;;;;5060592;28;20441;-87
2022/09/26 00:29:58;;;;;;;10.60;9.60;;;12.80;99.90;;;;;;5062764;28;20865;-87
2022/09/26 00:32:24;;;;;;;13.73;10.03;;;12.70;99.90;;;;;;5064674;28;20443;-87
2022/09/26 00:34:51;;;;;;;12.57;10.80;;;12.80;99.90;;;;;;5061279;28;20846;-87
2022/09/26 00:37:18;;;;;;;12.97;10.40;;;12.70;99.90;;;;;;5057598;28;20896;-87
2022/09/26 00:39:45;;;;;;;10.80;9.60;;;12.80;99.90;;;;;;5056328;28;20448;-87
2022/09/26 00:42:14;;;;;;;11.70;10.50;;;12.80;99.90;;;;;;5075586;28;20434;-85
2022/09/26 00:44:54;;;;;;;11.03;9.87;;;12.70;99.90;;;;;;5074564;28;20457;-86
2022/09/26 00:47:32;;;;;;;12.83;9.60;;;12.70;99.90;;;;;;5058517;28;20468;-87
2022/09/26 00:50:03;;;;;;;15.20;11.23;;;12.60;99.90;;;;;;5081573;28;20440;-87
2022/09/26 00:52:34;;;;;;;11.90;10.70;;;12.60;99.90;;;;;;5078567;28;20440;-87
2022/09/26 00:55:04;;;;;;;12.17;10.33;;;12.60;99.90;;;;;;5065621;28;21018;-87
2022/09/26 00:57:35;;;;;;;13.00;9.57;;;12.60;99.90;;;;;;5063964;28;20517;-87
2022/09/26 01:00:09;;;;;;;11.60;10.50;;;12.50;99.90;;;;;;5069579;28;20436;-87
2022/09/26 01:02:35;;;;;;;14.50;10.63;;;12.40;99.90;;;;;;5071972;28;20463;-87
2022/09/26 01:05:04;;;;;;;13.83;10.80;;;12.30;99.90;;;;;;5065679;28;20463;-86
2022/09/26 01:07:33;;;;;;;12.20;11.10;;;12.30;99.90;;;;;;5065020;28;20479;-87
2022/09/26 01:10:02;;;;;;;11.90;10.07;;;12.30;99.90;;;;;;5066154;28;21010;-87
2022/09/26 01:12:29;;;;;;;13.23;11.87;;;12.20;99.90;;;;;;5062862;28;20922;-87
2022/09/26 01:14:57;;;;;;;13.00;11.73;;;12.20;99.90;;;;;;5055968;28;20534;-86
2022/09/26 01:17:27;;;;;;;11.43;10.23;;;12.00;99.90;;;;;;5059672;28;20864;-86
2022/09/26 01:20:09;;;;;;;14.40;10.60;;;12.00;99.90;;;;;;5056948;28;20448;-87
2022/09/26 01:23:13;;;;;;;13.00;11.30;;;11.90;99.90;;;;;;5070260;28;20795;-86
2022/09/26 01:25:55;;;;;;;18.77;10.57;;;11.80;99.90;;;;;;5054787;28;20507;-88
2022/09/26 01:28:34;;;;;;;11.43;10.13;;;11.80;99.90;;;;;;5058338;28;20482;-86
2022/09/26 01:31:10;;;;;;;12.23;10.97;;;11.80;99.90;;;;;;5076422;28;20470;-86
2022/09/26 01:33:50;;;;;;;12.57;10.70;;;11.70;99.90;;;;;;5059682;28;20493;-87
2022/09/26 01:36:46;;;;;;;14.40;11.63;;;11.70;99.90;;;;;;5072925;28;20447;-86
2022/09/26 01:39:29;;;;;;;12.70;11.00;;;11.70;99.90;;;;;;5071328;28;20441;-86
2022/09/26 01:42:03;;;;;;;11.17;10.03;;;11.70;99.90;;;;;;5079638;28;20486;-87
2022/09/26 01:44:34;;;;;;;14.87;10.20;;;11.70;99.90;;;;;;5064782;28;20432;-87
2022/09/26 01:47:10;;;;;;;11.50;10.30;;;11.60;99.90;;;;;;5060576;28;20431;-87
2022/09/26 01:49:47;;;;;;;15.37;11.27;;;11.50;99.90;;;;;;5063375;28;20440;-87
2022/09/26 01:52:19;;;;;;;15.67;10.33;;;11.50;99.90;;;;;;5054788;28;20442;-87
2022/09/26 01:54:52;;;;;;;13.20;10.33;;;11.50;99.90;;;;;;5059053;28;20560;-86
2022/09/26 01:57:23;;;;;;;12.47;11.00;;;11.50;99.90;;;;;;5057284;28;20443;-86
2022/09/26 01:59:54;;;;;;;12.83;10.30;;;11.50;99.90;;;;;;5054858;28;20460;-87
2022/09/26 02:02:25;;;;;;;21.33;11.07;;;11.50;99.90;;;;;;5053268;28;20448;-86
2022/09/26 02:04:57;;;;;;;11.60;10.50;;;11.50;99.90;;;;;;5059492;28;20985;-87
2022/09/26 02:07:30;;;;;;;12.90;10.80;;;11.60;99.90;;;;;;5060061;28;20824;-87
2022/09/26 02:10:01;;;;;;;12.10;10.50;;;11.60;99.90;;;;;;5062165;28;20952;-86
2022/09/26 02:12:31;;;;;;;11.47;10.37;;;11.60;99.90;;;;;;5060907;28;20448;-86
2022/09/26 02:15:01;;;;;;;12.37;11.07;;;11.60;99.90;;;;;;5060484;28;20490;-86
2022/09/26 02:17:33;;;;;;;15.83;10.27;;;11.60;99.90;;;;;;5070477;28;20418;-86
2022/09/26 02:20:03;;;;;;;12.43;9.73;;;11.70;99.90;;;;;;5081691;28;20436;-86
2022/09/26 02:22:34;;;;;;;13.90;9.90;;;11.80;99.90;;;;;;5066716;28;20842;-87
2022/09/26 02:25:01;;;;;;;19.53;10.33;;;11.80;99.90;;;;;;5072371;28;20440;-86
2022/09/26 02:27:28;;;;;;;12.83;10.27;;;11.80;99.90;;;;;;5067925;28;20449;-87
2022/09/26 02:29:56;;;;;;;15.80;9.70;;;11.80;99.90;;;;;;5061671;28;20493;-87
2022/09/26 02:32:27;;;;;;;12.30;9.90;;;11.90;99.90;;;;;;5068078;28;20459;-87
2022/09/26 02:34:56;;;;;;;11.10;10.00;;;11.90;99.90;;;;;;5084982;28;20484;-86
2022/09/26 02:37:24;;;;;;;10.40;9.30;;;11.90;99.90;;;;;;5068523;28;20855;-87
2022/09/26 02:39:52;;;;;;;10.80;9.70;;;11.80;99.90;;;;;;5056789;28;20443;-87
2022/09/26 02:42:24;;;;;;;19.80;11.23;;;11.70;99.90;;;;;;5060294;28;20445;-87
2022/09/26 02:45:05;;;;;;;13.67;10.80;;;11.70;99.90;;;;;;5059880;28;20457;-87
2022/09/26 02:47:47;;;;;;;13.33;10.40;;;11.60;99.90;;;;;;5056308;28;20527;-87
2022/09/26 02:50:30;;;;;;;12.37;10.80;;;11.60;99.90;;;;;;5060403;28;20448;-87
2022/09/26 02:53:12;;;;;;;11.70;9.50;;;11.70;99.90;;;;;;5060257;28;20447;-87
2022/09/26 02:55:47;;;;;;;15.90;11.37;;;11.70;99.90;;;;;;5060090;28;20483;-87
2022/09/26 02:58:22;;;;;;;15.90;12.10;;;11.70;99.90;;;;;;5059178;28;20432;-87
2022/09/26 03:00:58;;;;;;;16.77;12.10;;;11.70;99.90;;;;;;5058232;28;20436;-88
2022/09/26 03:03:31;;;;;;;15.90;10.83;;;11.80;99.90;;;;;;5064070;28;20451;-87
2022/09/26 03:06:02;;;;;;;14.97;11.23;;;11.80;99.90;;;;;;5079497;28;20464;-87
2022/09/26 03:08:32;;;;;;;13.13;10.80;;;11.80;99.90;;;;;;5066520;28;20425;-87
2022/09/26 03:11:03;;;;;;;14.43;11.70;;;11.80;99.90;;;;;;5058941;28;20436;-87
2022/09/26 03:13:35;;;;;;;18.63;13.57;;;11.80;99.90;;;;;;5064403;28;20979;-87
2022/09/26 03:16:02;;;;;;;15.50;12.03;;;11.80;99.90;;;;;;5064142;28;20507;-87
2022/09/26 03:18:34;;;;;;;14.63;11.70;;;11.80;99.90;;;;;;5068504;28;20460;-87
2022/09/26 03:21:02;;;;;;;14.40;11.90;;;11.80;99.90;;;;;;5073963;28;20493;-87
2022/09/26 03:23:29;;;;;;;13.90;11.17;;;11.80;99.90;;;;;;5078216;28;20420;-87
2022/09/26 03:26:00;;;;;;;17.87;13.20;;;11.80;99.90;;;;;;5060636;28;20452;-87
2022/09/26 03:28:27;;;;;;;15.60;11.80;;;11.80;99.90;;;;;;5059067;28;20439;-87
2022/09/26 03:30:54;;;;;;;13.17;11.83;;;11.80;99.90;;;;;;5075381;28;20445;-87
2022/09/26 03:33:21;;;;;;;16.80;13.03;;;11.80;99.90;;;;;;5083057;28;20455;-87
2022/09/26 03:35:47;;;;;;;15.33;11.50;;;11.80;99.90;;;;;;5061334;28;20928;-87
2022/09/26 03:38:15;;;;;;;16.00;13.00;;;11.80;99.90;;;;;;5063799;28;20887;-87
2022/09/26 03:40:42;;;;;;;14.03;12.23;;;11.80;99.90;;;;;;5081372;28;20448;-87
2022/09/26 03:43:10;;;;;;;20.10;12.23;;;11.80;99.90;;;;;;5073085;28;20444;-87
2022/09/26 03:45:37;;;;;;;15.13;13.27;;;11.80;99.90;;;;;;5293628;22;20496;-86
2022/09/26 03:48:05;;;;;;;13.70;12.30;;;11.80;99.90;;;;;;5085108;28;20933;-86
2022/09/26 03:50:32;;;;;;;15.63;11.50;;;11.80;99.90;;;;;;5074315;28;20436;-86
2022/09/26 03:52:59;;;;;;;22.13;13.97;;;11.80;99.90;;;;;;5075812;28;20431;-86
2022/09/26 03:55:27;;;;;;;17.03;12.03;;;11.80;99.90;;;;;;5078932;28;20858;-86
2022/09/26 03:57:54;;;;;;;13.90;12.03;;;11.80;99.90;;;;;;5067597;28;20445;-88
2022/09/26 04:00:21;;;;;;;14.67;12.67;;;11.80;99.90;;;;;;5057033;28;20452;-88
2022/09/26 04:02:47;;;;;;;20.97;13.10;;;11.80;99.90;;;;;;5072799;28;20453;-88
2022/09/26 04:05:14;;;;;;;18.27;15.40;;;11.80;99.90;;;;;;5071519;28;20531;-88
2022/09/26 04:07:43;;;;;;;22.47;14.80;;;11.70;99.90;;;;;;5062828;28;20447;-88
2022/09/26 04:10:10;;;;;;;14.50;13.00;;;11.70;99.90;;;;;;5060751;28;20469;-88
2022/09/26 04:12:39;;;;;;;18.00;13.10;;;11.70;99.90;;;;;;5073844;28;20930;-88
2022/09/26 04:15:07;;;;;;;14.27;12.37;;;11.70;99.90;;;;;;5072255;28;20492;-88
2022/09/26 04:17:34;;;;;;;15.20;13.00;;;11.70;99.90;;;;;;5076696;28;20450;-88
2022/09/26 04:20:01;;;;;;;16.50;14.70;;;11.70;99.90;;;;;;5069675;28;20492;-88
2022/09/26 04:22:28;;;;;;;16.27;12.20;;;11.80;99.90;;;;;;5070648;28;20444;-88
2022/09/26 04:24:55;;;;;;;13.27;11.63;;;11.80;99.90;;;;;;5081156;28;20973;-88
2022/09/26 04:27:25;;;;;;;14.40;12.00;;;11.80;99.90;;;;;;5095094;28;20456;-88
2022/09/26 04:29:55;;;;;;;12.83;11.30;;;11.70;99.90;;;;;;5091918;28;20449;-88
2022/09/26 04:32:22;;;;;;;15.10;12.87;;;11.60;99.90;;;;;;5081527;28;20528;-88
2022/09/26 04:34:49;;;;;;;19.70;14.53;;;11.60;99.90;;;;;;5093399;28;20472;-87
2022/09/26 04:37:16;;;;;;;18.00;14.07;;;11.50;99.90;;;;;;5101751;28;20439;-87
2022/09/26 04:39:43;;;;;;;16.60;12.60;;;11.50;99.90;;;;;;5098593;28;20425;-87
2022/09/26 04:42:09;;;;;;;18.93;14.93;;;11.40;99.90;;;;;;5073808;28;20507;-87
2022/09/26 04:44:36;;;;;;;19.63;13.60;;;11.40;99.90;;;;;;5095047;28;20423;-86
2022/09/26 04:47:04;;;;;;;16.40;13.87;;;11.40;99.90;;;;;;5091109;28;20446;-86
2022/09/26 04:49:31;;;;;;;17.77;12.87;;;11.40;99.90;;;;;;5075351;28;20532;-87
2022/09/26 04:51:58;;;;;;;18.93;14.50;;;11.50;99.90;;;;;;5074140;28;20854;-86
2022/09/26 04:54:25;;;;;;;23.60;14.57;;;11.50;99.90;;;;;;5072156;28;20445;-86
2022/09/26 04:56:51;;;;;;;18.77;13.63;;;11.40;99.90;;;;;;5067884;28;20442;-86
2022/09/26 04:59:18;;;;;;;20.70;13.37;;;11.40;99.90;;;;;;5071317;28;20440;-86
2022/09/26 05:01:45;;;;;;;17.40;13.00;;;11.30;99.90;;;;;;5075218;28;20433;-87
2022/09/26 05:04:13;;;;;;;20.30;15.30;;;11.40;99.90;;;;;;5094017;28;20447;-87
2022/09/26 05:06:40;;;;;;;18.03;14.50;;;11.40;99.90;;;;;;5093747;28;20448;-86
2022/09/26 05:09:07;;;;;;;18.47;14.10;;;11.40;99.90;;;;;;5075447;28;20494;-86
2022/09/26 05:11:33;;;;;;;15.67;13.73;;;11.30;99.90;;;;;;5074601;28;20449;-87
2022/09/26 05:14:00;;;;;;;17.17;15.37;;;11.20;99.90;;;;;;5075776;28;20498;-87
2022/09/26 05:16:28;;;;;;;15.10;13.50;;;11.20;99.90;;;;;;5069238;28;20487;-86
2022/09/26 05:18:55;;;;;;;17.27;15.10;;;11.20;99.90;;;;;;5072793;28;20439;-87
2022/09/26 05:21:23;;;;;;;22.43;15.90;;;11.20;99.90;;;;;;5076373;28;20437;-87
2022/09/26 05:26:40;;;;;;;20.17;14.37;;;11.20;99.90;;;;;;5083193;28;20456;-87
2022/09/26 05:29:08;;;;;;;15.93;13.73;;;11.10;99.90;;;;;;5087811;28;20428;-87
2022/09/26 05:31:36;;;;;;;16.73;13.50;;;11.10;99.90;;;;;;5070535;28;20931;-88
2022/09/26 05:34:04;;;;;;;18.87;15.27;;;11.10;99.90;;;;;;5077094;28;20435;-88
2022/09/26 05:36:32;;;;;;;17.23;13.80;;;11.10;99.90;;;;;;5069411;28;20508;-87
2022/09/26 05:38:59;;;;;;;22.80;14.53;;;11.20;99.90;;;;;;5078780;28;20443;-88
2022/09/26 05:41:28;;;;;;;23.10;15.60;;;11.20;99.90;;;;;;5094399;28;20432;-88
2022/09/26 05:43:55;;;;;;;18.23;15.33;;;11.20;99.90;;;;;;5074322;28;20496;-88
2022/09/26 05:46:22;;;;;;;22.50;14.17;;;11.20;99.90;;;;;;5077062;28;20534;-86
2022/09/26 05:48:49;;;;;;;18.20;13.97;;;11.20;99.90;;;;;;5078748;28;20444;-88
2022/09/26 05:51:19;;;;;;;17.00;13.50;;;11.30;99.90;;;;;;5076244;28;20447;-87
2022/09/26 05:53:49;;;;;;;22.60;15.40;;;11.30;99.90;;;;;;5062965;28;20507;-87
2022/09/26 05:56:18;;;;;;;21.13;14.30;;;11.40;99.90;;;;;;5085555;28;20890;-87
2022/09/26 05:58:44;;;;;;;21.13;14.53;;;11.40;99.90;;;;;;5077226;28;20447;-87
2022/09/26 06:01:13;;;;;;;15.60;13.23;;;11.40;99.90;;;;;;5092294;28;20442;-87
2022/09/26 06:03:43;;;;;;;13.70;11.03;;;11.50;99.90;;;;;;5079464;28;20450;-86
2022/09/26 06:06:11;;;;;;;11.87;10.73;;;11.50;99.90;;;;;;5071802;28;20456;-86
2022/09/26 06:08:39;;;;;;;14.40;10.40;;;11.60;99.90;;;;;;5070926;28;20456;-86
2022/09/26 06:11:09;;;;;;;15.00;10.90;;;11.80;99.90;;;;;;5073403;28;20489;-86
2022/09/26 06:13:36;;;;;;;11.93;10.63;;;12.00;99.90;;;;;;5080228;28;20450;-87
2022/09/26 06:16:05;;;;;;;16.40;10.80;;;12.10;99.90;;;;;;5071744;28;20528;-87
2022/09/26 06:18:32;;;;;;;13.20;10.60;;;12.20;99.90;;;;;;5084612;28;20435;-87
2022/09/26 06:21:02;;;;;;;14.00;10.80;;;12.20;99.90;;;;;;5070171;28;20467;-87
2022/09/26 06:23:29;;;;;;;17.83;10.47;;;12.30;99.90;;;;;;5097483;28;20503;-86
2022/09/26 06:25:57;;;;;;;14.00;10.97;;;12.40;99.90;;;;;;5086744;28;20477;-87
2022/09/26 06:28:26;;;;;;;14.93;9.63;;;12.50;99.90;;;;;;5089238;28;20451;-83
2022/09/26 06:30:53;;;;;;;16.53;10.20;;;12.60;99.90;;;;;;5070810;28;20440;-86
2022/09/26 06:33:20;;;;;;;11.40;8.13;;;12.60;99.90;;;;;;5065234;28;20443;-86
2022/09/26 06:35:47;;;;;;;17.67;10.00;;;12.70;99.90;;;;;;5072727;28;20533;-86
2022/09/26 06:38:14;;;;;;;9.23;8.30;;;12.70;99.90;;;;;;5100871;22;20727;-85
2022/09/26 06:40:44;;;;;;;10.80;8.50;;;12.80;99.90;;;;;;5084618;28;20446;-85
2022/09/26 06:43:10;;;;;;;9.23;7.90;;;12.80;99.90;;;;;;5101538;28;20510;-79
2022/09/26 06:45:38;;;;;;;10.43;7.67;;;12.90;99.90;;;;;;5098662;28;20435;-80
2022/09/26 06:48:05;;;;;;;11.30;7.30;;;12.90;99.90;;;;;;5092149;28;20472;-79
2022/09/26 06:50:32;;;;;;;15.17;7.10;;;13.00;99.90;;;;;;5081146;28;20503;-79
2022/09/26 06:53:02;;;;;;;8.80;7.80;;;13.10;99.90;;;;;;5081024;28;20454;-79
2022/09/26 06:55:28;;;;;;;9.40;7.40;;;13.20;99.90;;;;;;5078429;28;20553;-77
2022/09/26 06:57:58;;;;;;;9.80;7.23;;;13.30;99.90;;;;;;5078069;28;20472;-91
2022/09/26 07:00:28;;;;;;;9.73;7.37;;;13.40;99.90;;;;;;5079778;28;20444;-85
2022/09/26 07:02:56;;;;;;;9.97;6.90;;;13.60;99.90;;;;;;5081569;28;20791;-86
2022/09/26 07:05:24;;;;;;;9.60;7.30;;;13.70;99.90;;;;;;5079299;28;20447;-86
2022/09/26 07:07:52;;;;;;;11.20;6.60;;;13.70;99.90;;;;;;5073267;28;20494;-86
2022/09/26 07:10:19;;;;;;;7.70;6.90;;;13.70;99.90;;;;;;5087758;28;20440;-86
2022/09/26 07:12:46;;;;;;;10.90;7.50;;;13.80;99.90;;;;;;5093431;28;20992;-86
2022/09/26 07:15:15;;;;;;;10.13;7.47;;;14.00;99.90;;;;;;5079471;28;20959;-86
2022/09/26 07:17:43;;;;;;;5.70;5.20;;;14.20;99.90;;;;;;5079156;28;21052;-86
2022/09/26 07:20:12;;;;;;;7.20;4.90;;;14.40;99.90;;;;;;5080572;28;20451;-85
2022/09/26 07:22:40;;;;;;;6.83;4.80;;;14.70;99.90;;;;;;5080614;28;20440;-86
2022/09/26 07:25:07;;;;;;;4.10;3.80;;;14.90;99.90;;;;;;5080482;28;20461;-86
2022/09/26 07:27:34;;;;;;;5.43;4.30;;;15.00;99.90;;;;;;5088547;28;20604;-85
2022/09/26 07:30:01;;;;;;;6.10;4.17;;;15.20;99.90;;;;;;5093570;28;20436;-87
2022/09/26 07:32:29;;;;;;;6.37;3.77;;;15.40;99.90;;;;;;5084073;28;20457;-86
2022/09/26 07:34:58;;;;;;;8.17;5.03;;;15.50;99.90;;;;;;5094545;28;20524;-86
2022/09/26 07:37:28;;;;;;;5.00;3.60;;;15.30;99.90;;;;;;5087993;28;20558;-86
2022/09/26 07:39:55;;;;;;;7.93;5.53;;;15.30;99.90;;;;;;5082040;28;20499;-87
2022/09/26 07:42:22;;;;;;;3.70;3.40;;;15.40;99.90;;;;;;5080110;28;20459;-86
2022/09/26 07:44:48;;;;;;;8.60;5.73;;;15.40;99.90;;;;;;5080407;28;20523;-86
2022/09/26 07:50:12;;;;;;;5.10;3.97;;;15.00;99.90;;;;;;5076888;28;20861;-86
2022/09/26 07:52:40;;;;;;;5.63;3.70;;;15.00;99.90;;;;;;5080166;28;20440;-86
2022/09/26 07:55:09;;;;;;;6.50;4.07;;;15.30;99.90;;;;;;5096295;28;20507;-86
2022/09/26 07:57:35;;;;;;;3.93;3.40;;;15.30;99.90;;;;;;5077800;28;20483;-86
2022/09/26 08:00:04;;;;;;;3.23;2.90;;;15.30;99.90;;;;;;5088795;28;20412;-86
2022/09/26 08:02:34;;;;;;;7.10;3.80;;;15.30;99.90;;;;;;5099938;28;20477;-85
2022/09/26 08:05:02;;;;;;;6.03;3.40;;;15.30;99.90;;;;;;5098950;28;20452;-84
2022/09/26 08:07:30;;;;;;;5.30;3.17;;;15.10;99.90;;;;;;5091700;28;20468;-86
2022/09/26 08:10:00;;;;;;;5.60;3.17;;;15.10;99.90;;;;;;5098703;28;20448;-84
2022/09/26 08:12:28;;;;;;;7.57;3.80;;;15.20;99.90;;;;;;5098910;28;20454;-85
2022/09/26 08:14:55;;;;;;;5.70;3.57;;;15.10;99.90;;;;;;5098864;28;20450;-85
2022/09/26 08:17:22;;;;;;;6.47;3.33;;;15.30;99.90;;;;;;5098990;28;20486;-84
2022/09/26 08:19:48;;;;;;;5.53;3.37;;;15.40;99.90;;;;;;5099468;28;20507;-84
2022/09/26 08:22:15;;;;;;;3.80;3.40;;;15.40;99.90;;;;;;5099122;28;20464;-86
2022/09/26 08:24:44;;;;;;;7.77;3.50;;;15.50;99.90;;;;;;5099089;28;20452;-85
2022/09/26 08:27:12;;;;;;;3.60;3.20;;;15.80;99.90;;;;;;5098769;28;20431;-86
2022/09/26 08:29:40;;;;;;;3.97;3.40;;;16.10;99.90;;;;;;5098776;28;20495;-85
2022/09/26 08:32:07;;;;;;;3.97;2.83;;;16.30;99.90;;;;;;5097454;28;20461;-86
2022/09/26 08:34:35;;;;;;;4.10;3.30;;;16.50;99.90;;;;;;5095928;28;20439;-86
2022/09/26 08:37:02;;;;;;;3.33;2.67;;;16.80;99.90;;;;;;5086255;28;20563;-87
2022/09/26 08:39:31;;;;;;;6.00;3.33;;;16.90;99.90;;;;;;5078596;28;20521;-87
2022/09/26 08:42:09;;;;;;;3.53;3.13;;;17.30;99.90;;;;;;5081171;28;20433;-86
2022/09/26 08:44:55;;;;;;;4.17;2.93;;;17.20;99.90;;;;;;5080260;28;20430;-87
2022/09/26 08:47:38;;;;;;;4.43;2.73;;;17.40;99.90;;;;;;5079553;28;20557;-87
2022/09/26 08:50:19;;;;;;;4.03;3.63;;;18.00;99.90;;;;;;5088847;28;20440;-86
2022/09/26 08:52:52;;;;;;;3.73;3.03;;;18.20;99.70;;;;;;5065294;28;20460;-85
2022/09/26 08:55:23;;;;;;;4.43;2.93;;;18.80;97.60;;;;;;5067312;28;20462;-85
2022/09/26 08:57:57;;;;;;;3.13;2.83;;;19.50;95.70;;;;;;5084652;28;20498;-85
2022/09/26 09:00:27;;;;;;;4.73;2.40;;;19.60;95.50;;;;;;5082921;28;20910;-86
2022/09/26 09:03:11;;;;;;;4.63;3.30;;;19.90;94.20;;;;;;5081083;28;20440;-86
2022/09/26 09:05:42;;;;;;;3.17;2.80;;;21.00;92.40;;;;;;5079859;28;20479;-86
2022/09/26 09:08:15;;;;;;;5.47;3.00;;;22.60;90.50;;;;;;5078857;28;20472;-87
2022/09/26 09:10:46;;;;;;;3.93;2.83;;;25.20;81.50;;;;;;5077939;28;20458;-87
2022/09/26 09:13:36;;;;;;;6.20;2.53;;;26.20;73.00;;;;;;5084014;28;20439;-87
2022/09/26 09:16:22;;;;;;;4.87;2.97;;;27.60;67.30;;;;;;5088597;28;20451;-87
2022/09/26 09:18:58;;;;;;;5.70;2.73;;;28.60;59.90;;;;;;5083188;28;20469;-87
2022/09/26 09:21:39;;;;;;;4.60;2.27;;;28.60;57.00;;;;;;5082081;28;20444;-85
2022/09/26 09:24:18;;;;;;;2.97;2.63;;;28.10;56.60;;;;;;5095507;28;20454;-86
2022/09/26 09:26:57;;;;;;;6.37;2.30;;;28.90;56.80;;;;;;5085180;28;20476;-87
2022/09/26 09:29:39;;;;;;;7.10;2.47;;;29.20;54.80;;;;;;5081355;28;20466;-88
2022/09/26 09:32:11;;;;;;;3.87;2.33;;;28.70;53.00;;;;;;5079006;28;20444;-87
2022/09/26 09:34:43;;;;;;;4.50;2.40;;;28.70;52.70;;;;;;5080640;28;20942;-87
2022/09/26 09:37:15;;;;;;;4.83;2.40;;;25.80;55.30;;;;;;5077999;28;20527;-86
2022/09/26 09:39:46;;;;;;;3.70;2.03;;;25.00;58.50;;;;;;5079655;28;20462;-86
2022/09/26 09:42:20;;;;;;;3.47;2.27;;;25.90;57.80;;;;;;5077555;28;20553;-87
2022/09/26 09:44:55;;;;;;;4.33;2.30;;;26.60;56.90;;;;;;5079650;28;20522;-86
2022/09/26 09:47:27;;;;;;;4.77;2.60;;;25.60;55.40;;;;;;5086234;28;20493;-88
2022/09/26 09:49:55;;;;;;;2.63;2.27;;;26.40;56.50;;;;;;5083565;28;20454;-87
2022/09/26 09:52:37;;;;;;;4.53;2.23;;;26.50;57.00;;;;;;5075549;28;20454;-87
2022/09/26 09:55:23;;;;;;;5.10;1.70;;;27.70;56.00;;;;;;5072369;28;20439;-87
2022/09/26 09:58:17;;;;;;;3.17;2.40;;;28.50;52.30;;;;;;5077390;28;20456;-87
2022/09/26 10:01:00;;;;;;;4.40;2.30;;;28.40;53.70;;;;;;5080833;28;20804;-87
2022/09/26 10:03:38;;;;;;;6.00;2.20;;;30.00;51.00;;;;;;5089130;28;20443;-86
2022/09/26 10:06:08;;;;;;;3.40;2.10;;;30.40;50.20;;;;;;5097853;28;20505;-86
2022/09/26 10:08:41;;;;;;;6.20;1.70;;;29.20;49.60;;;;;;5097863;28;20472;-87
2022/09/26 10:11:22;;;;;;;4.03;3.13;;;27.60;51.10;;;;;;5097343;28;20489;-86
2022/09/26 10:13:52;;;;;;;2.83;1.90;;;26.00;53.10;;;;;;5096998;28;20451;-86
2022/09/26 10:16:19;;;;;;;3.47;2.03;;;25.00;54.50;;;;;;5090452;28;20452;-87
2022/09/26 10:18:55;;;;;;;3.60;2.20;;;23.80;56.40;;;;;;5077191;28;20470;-87
2022/09/26 10:21:31;;;;;;;4.43;2.47;;;21.40;59.50;;;;;;5076508;28;20474;-87
2022/09/26 10:23:58;;;;;;;2.80;2.03;;;20.20;65.20;;;;;;5076583;28;20436;-87
2022/09/26 10:26:43;;;;;;;4.60;1.93;;;19.30;70.10;;;;;;5076797;28;20510;-92
2022/09/26 10:29:26;;;;;;;2.80;2.50;;;18.80;72.10;;;;;;5075092;28;20501;-86
2022/09/26 10:31:59;;;;;;;3.07;1.90;;;18.50;74.40;;;;;;5076552;28;20458;-86
2022/09/26 10:34:38;;;;;;;4.50;2.20;;;18.50;73.90;;;;;;5075798;28;20447;-86
2022/09/26 10:37:26;;;;;;;2.30;1.90;;;18.80;74.30;;;;;;5076047;28;20432;-87
2022/09/26 10:42:47;;;;;;;2.73;1.73;;;20.90;69.40;;;;;;5052007;28;20479;-87
2022/09/26 10:45:16;;;;;;;3.83;1.70;;;23.20;63.20;;;;;;5075552;28;20439;-86
2022/09/26 10:47:47;;;;;;;2.83;2.00;;;24.30;59.00;;;;;;5075483;28;20480;-86
2022/09/26 10:50:23;;;;;;;2.30;1.60;;;24.90;57.20;;;;;;5079033;28;20432;-85
2022/09/26 10:52:54;;;;;;;3.60;1.90;;;23.60;56.30;;;;;;5093305;28;20438;-86
2022/09/26 10:55:26;;;;;;;5.80;1.90;;;22.60;57.90;;;;;;5078687;28;20476;-86
2022/09/26 10:58:09;;;;;;;3.73;2.13;;;21.80;60.30;;;;;;5079235;28;20448;-86
2022/09/26 11:00:39;;;;;;;2.97;2.00;;;20.90;61.80;;;;;;5089033;28;20463;-86
2022/09/26 11:03:09;;;;;;;2.73;2.07;;;20.20;64.40;;;;;;5082337;28;20526;-88
2022/09/26 11:06:02;;;;;;;3.50;2.30;;;19.40;67.10;;;;;;5076060;28;20943;-86
2022/09/26 11:08:38;;;;;;;4.93;2.20;;;19.40;70.20;;;;;;5074720;28;20484;-87
2022/09/26 11:11:10;;;;;;;1.83;1.63;;;19.80;70.70;;;;;;5072839;28;20451;-86
2022/09/26 11:13:46;;;;;;;3.90;2.30;;;19.80;68.10;;;;;;5077212;28;20458;-87
2022/09/26 11:16:16;;;;;;;3.50;2.10;;;19.70;69.40;;;;;;5084819;28;20511;-86
2022/09/26 11:18:55;;;;;;;2.70;1.97;;;19.50;68.20;;;;;;5095012;28;20466;-87
2022/09/26 11:21:32;;;;;;;3.77;2.27;;;19.20;67.90;;;;;;5079385;28;20475;-87
2022/09/26 11:24:04;;;;;;;5.50;2.37;;;19.00;69.30;;;;;;5075852;28;20431;-86
2022/09/26 11:26:38;;;;;;;2.00;1.60;;;18.80;70.90;;;;;;5078771;28;20444;-85
2022/09/26 11:29:15;;;;;;;4.33;1.50;;;18.40;69.60;;;;;;5078159;28;20448;-85
2022/09/26 11:31:42;;;;;;;2.07;1.50;;;18.30;68.30;;;;;;5072718;28;20459;-86
2022/09/26 11:34:25;;;;;;;3.00;2.00;;;18.90;68.60;;;;;;5066826;28;20479;-87
2022/09/26 11:37:12;;;;;;;2.40;1.60;;;19.70;68.50;;;;;;5059642;28;20449;-87
2022/09/26 11:39:58;;;;;;;1.77;1.33;;;20.80;65.10;;;;;;5071090;28;20459;-87
2022/09/26 11:42:38;;;;;;;2.63;1.57;;;22.40;63.40;;;;;;5081949;28;20443;-87
2022/09/26 11:45:18;;;;;;;3.90;1.80;;;22.50;59.40;;;;;;5080173;28;20443;-86
2022/09/26 11:48:12;;;;;;;2.00;1.67;;;21.40;61.00;;;;;;5082201;28;20487;-86
2022/09/26 11:50:55;;;;;;;4.83;1.90;;;21.40;62.60;;;;;;5078259;28;20452;-86
2022/09/26 11:53:43;;;;;;;2.47;1.50;;;22.70;59.60;;;;;;5090333;28;20444;-86
2022/09/26 11:56:28;;;;;;;2.57;1.50;;;22.90;58.20;;;;;;5078426;28;20432;-86
2022/09/26 11:59:03;;;;;;;2.77;1.30;;;22.90;57.80;;;;;;5075933;28;20495;-86
2022/09/26 12:01:42;;;;;;;3.07;1.60;;;23.60;58.40;;;;;;5080905;28;20450;-86
2022/09/26 12:04:36;;;;;;;2.77;1.60;;;23.80;56.00;;;;;;5087568;28;20940;-86
2022/09/26 12:07:11;;;;;;;3.60;1.53;;;21.60;58.00;;;;;;5075313;28;20843;-86
2022/09/26 12:09:56;;;;;;;2.50;1.50;;;20.80;61.70;;;;;;5080402;28;20439;-86
2022/09/26 12:12:30;;;;;;;2.37;1.47;;;19.50;63.00;;;;;;5100310;28;20432;-85
2022/09/26 12:15:13;;;;;;;3.77;2.00;;;18.60;68.60;;;;;;5071283;28;20445;-85
2022/09/26 12:17:51;;;;;;;1.43;1.00;;;18.00;71.40;;;;;;5060532;28;20491;-85
2022/09/26 12:20:30;;;;;;;2.33;1.43;;;17.40;75.80;;;;;;5064104;28;20417;-87
2022/09/26 12:23:06;;;;;;;1.40;0.97;;;17.00;76.90;;;;;;5082287;28;20458;-87
2022/09/26 12:25:41;;;;;;;2.27;1.40;;;17.20;76.70;;;;;;5079016;28;20420;-87
2022/09/26 12:28:20;;;;;;;1.83;1.60;;;17.50;79.30;;;;;;5080008;28;20491;-87
2022/09/26 12:30:59;;;;;;;1.67;1.13;;;17.90;78.70;;;;;;5093500;28;20438;-84
2022/09/26 12:33:43;;;;;;;1.97;1.20;;;20.00;75.70;;;;;;5099725;28;20593;-84
2022/09/26 12:36:20;;;;;;;3.43;1.20;;;22.70;68.10;;;;;;5098670;28;20450;-84
2022/09/26 12:39:17;;;;;;;2.00;1.30;;;24.30;61.30;;;;;;5091241;28;20547;-87
2022/09/26 12:42:03;;;;;;;2.47;1.70;;;26.00;58.80;;;;;;5068524;28;20445;-86
2022/09/26 12:44:53;;;;;;;2.90;1.53;;;27.70;54.00;;;;;;5076250;28;20537;-86
2022/09/26 12:48:03;;;;;;;2.47;1.43;;;27.70;52.30;;;;;;5079220;28;20480;-85
2022/09/26 12:50:40;;;;;;;2.00;1.20;;;26.70;53.10;;;;;;5041619;28;20452;-84
2022/09/26 12:53:27;;;;;;;2.70;1.70;;;26.90;52.00;;;;;;5095305;28;20413;-83
2022/09/26 12:56:06;;;;;;;2.67;1.77;;;25.90;51.70;;;;;;5079065;28;20543;-85
2022/09/26 12:58:50;;;;;;;2.73;1.50;;;24.80;53.50;;;;;;5092277;28;20455;-85
2022/09/26 13:01:31;;;;;;;2.67;1.60;;;23.40;56.20;;;;;;5087333;28;20436;-86
2022/09/26 13:04:38;;;;;;;2.17;1.37;;;21.90;57.80;;;;;;5079229;28;20440;-86
2022/09/26 13:07:14;;;;;;;4.10;1.80;;;20.30;59.80;;;;;;5088499;28;20424;-84
2022/09/26 13:09:55;;;;;;;2.37;1.30;;;19.50;64.60;;;;;;5096206;28;20507;-87
2022/09/26 13:12:39;;;;;;;2.40;1.70;;;19.00;65.70;;;;;;5077549;28;20440;-86